createdAt,value
2017-07-23T00:00:14.219Z,0
2017-07-23T00:01:02.131Z,0
2017-07-23T00:01:56.612Z,0
2017-07-23T00:02:51.257Z,0
2017-07-23T00:03:45.358Z,0
2017-07-23T00:04:40.266Z,0
2017-07-23T00:05:40.379Z,0
2017-07-23T00:06:29.419Z,0
2017-07-23T00:07:29.504Z,0
2017-07-23T00:08:18.583Z,0
2017-07-23T00:09:07.496Z,0
2017-07-23T00:09:56.689Z,0
2017-07-23T00:10:51.854Z,0
2017-07-23T00:11:45.800Z,0
2017-07-23T00:12:40.765Z,0
2017-07-23T00:13:35.963Z,0
2017-07-23T00:14:35.794Z,0
2017-07-23T00:15:35.861Z,0
2017-07-23T00:16:24.889Z,0
2017-07-23T00:17:13.369Z,0
2017-07-23T00:18:07.959Z,0
2017-07-23T00:19:02.065Z,0
2017-07-23T00:19:49.979Z,0
2017-07-23T00:20:39.160Z,0
2017-07-23T00:21:33.279Z,0
2017-07-23T00:22:27.172Z,0
2017-07-23T00:23:15.259Z,0
2017-07-23T00:24:09.385Z,0
2017-07-23T00:25:04.210Z,0
2017-07-23T00:25:59.321Z,0
2017-07-23T00:26:48.359Z,0
2017-07-23T00:27:42.601Z,0
2017-07-23T00:28:37.476Z,0
2017-07-23T00:29:32.850Z,0
2017-07-23T00:30:26.516Z,0
2017-07-23T00:31:20.562Z,0
2017-07-23T00:32:16.168Z,0
2017-07-23T00:33:15.591Z,0
2017-07-23T00:34:04.748Z,0
2017-07-23T00:34:59.360Z,0
2017-07-23T00:35:46.753Z,0
2017-07-23T00:36:41.117Z,0
2017-07-23T00:37:35.923Z,0
2017-07-23T00:38:23.871Z,0
2017-07-23T00:39:12.972Z,0
2017-07-23T00:40:07.085Z,0
2017-07-23T00:40:55.136Z,0
2017-07-23T00:41:50.238Z,0
2017-07-23T00:42:39.160Z,0
2017-07-23T00:43:28.049Z,0
2017-07-23T00:44:22.227Z,0
2017-07-23T00:45:17.289Z,0
2017-07-23T00:46:12.367Z,0
2017-07-23T00:47:07.814Z,0
2017-07-23T00:47:56.234Z,0
2017-07-23T00:48:51.415Z,0
2017-07-23T00:49:52.463Z,0
2017-07-23T00:50:41.653Z,0
2017-07-23T00:51:30.979Z,0
2017-07-23T00:52:24.623Z,0
2017-07-23T00:53:24.636Z,0
2017-07-23T00:54:24.597Z,0
2017-07-23T00:55:12.684Z,0
2017-07-23T00:56:00.922Z,0
2017-07-23T00:57:00.755Z,0
2017-07-23T00:57:54.764Z,0
2017-07-23T00:58:49.843Z,0
2017-07-23T00:59:43.977Z,0
2017-07-23T01:00:32.989Z,0
2017-07-23T01:01:20.995Z,0
2017-07-23T01:02:09.065Z,0
2017-07-23T01:03:03.087Z,0
2017-07-23T01:03:51.179Z,0
2017-07-23T01:04:39.149Z,0
2017-07-23T01:05:34.234Z,0
2017-07-23T01:06:22.350Z,0
2017-07-23T01:07:10.348Z,0
2017-07-23T01:08:04.437Z,0
2017-07-23T01:08:53.289Z,0
2017-07-23T01:09:41.359Z,0
2017-07-23T01:10:35.441Z,0
2017-07-23T01:11:35.652Z,0
2017-07-23T01:12:29.499Z,0
2017-07-23T01:13:23.657Z,0
2017-07-23T01:14:18.689Z,0
2017-07-23T01:15:07.723Z,0
2017-07-23T01:16:01.957Z,0
2017-07-23T01:16:57.420Z,0
2017-07-23T01:17:52.228Z,0
2017-07-23T01:18:45.761Z,0
2017-07-23T01:19:39.908Z,0
2017-07-23T01:20:33.963Z,0
2017-07-23T01:21:27.921Z,0
2017-07-23T01:22:23.286Z,0
2017-07-23T01:23:12.372Z,0
2017-07-23T01:24:01.514Z,0
2017-07-23T01:24:49.243Z,0
2017-07-23T01:25:38.148Z,0
2017-07-23T01:26:27.199Z,0
2017-07-23T01:27:16.851Z,0
2017-07-23T01:28:04.504Z,0
2017-07-23T01:28:58.380Z,0
2017-07-23T01:29:46.548Z,0
2017-07-23T01:30:34.443Z,0
2017-07-23T01:31:22.652Z,0
2017-07-23T01:32:17.115Z,0
2017-07-23T01:33:16.557Z,0
2017-07-23T01:34:04.876Z,0
2017-07-23T01:34:53.708Z,0
2017-07-23T01:35:48.771Z,0
2017-07-23T01:36:42.934Z,0
2017-07-23T01:37:42.844Z,0
2017-07-23T01:38:36.770Z,0
2017-07-23T01:39:36.813Z,0
2017-07-23T01:40:31.830Z,0
2017-07-23T01:41:26.869Z,0
2017-07-23T01:42:26.977Z,0
2017-07-23T01:43:22.025Z,0
2017-07-23T01:44:17.016Z,0
2017-07-23T01:45:17.078Z,0
2017-07-23T01:46:17.185Z,0
2017-07-23T01:47:17.575Z,0
2017-07-23T01:48:12.503Z,0
2017-07-23T01:49:07.290Z,0
2017-07-23T01:50:08.486Z,0
2017-07-23T01:50:56.884Z,0
2017-07-23T01:51:50.863Z,0
2017-07-23T01:52:44.455Z,0
2017-07-23T01:53:32.905Z,0
2017-07-23T01:54:20.470Z,0
2017-07-23T01:55:08.493Z,0
2017-07-23T01:56:02.559Z,0
2017-07-23T01:56:50.602Z,0
2017-07-23T01:57:51.088Z,0
2017-07-23T01:58:45.806Z,0
2017-07-23T01:59:40.708Z,0
2017-07-23T02:00:40.806Z,0
2017-07-23T02:01:30.297Z,0
2017-07-23T02:02:30.104Z,0
2017-07-23T02:03:18.938Z,0
2017-07-23T02:04:12.904Z,0
2017-07-23T02:05:08.036Z,0
2017-07-23T02:06:02.015Z,0
2017-07-23T02:06:51.379Z,0
2017-07-23T02:07:39.214Z,0
2017-07-23T02:08:27.426Z,0
2017-07-23T02:09:16.304Z,0
2017-07-23T02:10:04.240Z,0
2017-07-23T02:10:52.339Z,0
2017-07-23T02:11:46.340Z,0
2017-07-23T02:12:35.417Z,0
2017-07-23T02:13:35.397Z,0
2017-07-23T02:14:23.502Z,0
2017-07-23T02:15:17.458Z,0
2017-07-23T02:16:11.567Z,0
2017-07-23T02:17:12.594Z,0
2017-07-23T02:18:13.670Z,0
2017-07-23T02:19:08.787Z,0
2017-07-23T02:20:08.697Z,0
2017-07-23T02:21:08.750Z,0
2017-07-23T02:22:02.995Z,0
2017-07-23T02:23:03.877Z,0
2017-07-23T02:23:58.897Z,0
2017-07-23T02:24:53.074Z,0
2017-07-23T02:25:48.226Z,0
2017-07-23T02:26:37.492Z,0
2017-07-23T02:27:25.463Z,0
2017-07-23T02:28:19.020Z,0
2017-07-23T02:29:14.091Z,0
2017-07-23T02:30:09.167Z,0
2017-07-23T02:31:03.132Z,0
2017-07-23T02:32:03.649Z,0
2017-07-23T02:32:57.276Z,0
2017-07-23T02:33:52.333Z,0
2017-07-23T02:34:47.354Z,0
2017-07-23T02:35:47.336Z,0
2017-07-23T02:36:42.417Z,0
2017-07-23T02:37:37.335Z,0
2017-07-23T02:38:37.434Z,0
2017-07-23T02:39:32.580Z,0
2017-07-23T02:40:27.560Z,0
2017-07-23T02:41:28.693Z,0
2017-07-23T02:42:28.636Z,0
2017-07-23T02:43:23.592Z,0
2017-07-23T02:44:23.602Z,0
2017-07-23T02:45:17.797Z,0
2017-07-23T02:46:17.773Z,0
2017-07-23T02:47:07.409Z,0
2017-07-23T02:48:00.853Z,0
2017-07-23T02:48:49.967Z,0
2017-07-23T02:49:49.891Z,0
2017-07-23T02:50:43.988Z,0
2017-07-23T02:51:38.407Z,0
2017-07-23T02:52:32.106Z,0
2017-07-23T02:53:27.098Z,0
2017-07-23T02:54:16.502Z,0
2017-07-23T02:55:10.198Z,0
2017-07-23T02:55:58.253Z,4
2017-07-23T02:56:52.619Z,4
2017-07-23T02:57:46.324Z,4
2017-07-23T02:58:46.431Z,4
2017-07-23T02:59:41.334Z,0
2017-07-23T03:00:36.411Z,4
2017-07-23T03:01:30.648Z,4
2017-07-23T03:02:24.568Z,8
2017-07-23T03:03:25.485Z,4
2017-07-23T03:04:20.478Z,4
2017-07-23T03:05:15.566Z,8
2017-07-23T03:06:03.615Z,8
2017-07-23T03:06:51.698Z,12
2017-07-23T03:07:40.747Z,8
2017-07-23T03:08:34.802Z,12
2017-07-23T03:09:28.798Z,12
2017-07-23T03:10:22.844Z,16
2017-07-23T03:11:16.883Z,16
2017-07-23T03:12:12.411Z,16
2017-07-23T03:13:05.912Z,20
2017-07-23T03:13:55.064Z,16
2017-07-23T03:14:44.026Z,20
2017-07-23T03:15:39.015Z,20
2017-07-23T03:16:39.648Z,28
2017-07-23T03:17:34.199Z,32
2017-07-23T03:18:29.264Z,28
2017-07-23T03:19:30.227Z,40
2017-07-23T03:20:18.256Z,48
2017-07-23T03:21:06.353Z,40
2017-07-23T03:21:55.361Z,40
2017-07-23T03:22:43.506Z,52
2017-07-23T03:23:31.498Z,60
2017-07-23T03:24:20.557Z,72
2017-07-23T03:25:08.610Z,80
2017-07-23T03:25:56.637Z,80
2017-07-23T03:26:57.675Z,80
2017-07-23T03:27:51.654Z,88
2017-07-23T03:28:51.892Z,92
2017-07-23T03:29:46.701Z,96
2017-07-23T03:30:41.880Z,96
2017-07-23T03:31:42.831Z,104
2017-07-23T03:32:42.828Z,120
2017-07-23T03:33:37.002Z,120
2017-07-23T03:34:31.018Z,136
2017-07-23T03:35:20.056Z,156
2017-07-23T03:36:14.962Z,168
2017-07-23T03:37:15.055Z,180
2017-07-23T03:38:09.160Z,200
2017-07-23T03:39:03.143Z,232
2017-07-23T03:39:58.217Z,268
2017-07-23T03:40:52.676Z,280
2017-07-23T03:41:41.842Z,312
2017-07-23T03:42:41.329Z,340
2017-07-23T03:43:36.305Z,376
2017-07-23T03:44:24.472Z,416
2017-07-23T03:45:12.478Z,452
2017-07-23T03:46:01.488Z,476
2017-07-23T03:46:49.660Z,492
2017-07-23T03:47:38.617Z,500
2017-07-23T03:48:26.534Z,500
2017-07-23T03:49:14.678Z,496
2017-07-23T03:50:02.782Z,492
2017-07-23T03:50:50.824Z,476
2017-07-23T03:51:40.260Z,456
2017-07-23T03:52:27.943Z,440
2017-07-23T03:53:33.890Z,428
2017-07-23T03:54:28.825Z,440
2017-07-23T03:55:23.966Z,448
2017-07-23T03:56:24.966Z,460
2017-07-23T03:57:25.046Z,432
2017-07-23T03:58:20.152Z,388
2017-07-23T03:59:09.121Z,360
2017-07-23T03:59:58.204Z,352
2017-07-23T04:00:46.178Z,300
2017-07-23T04:01:40.767Z,240
2017-07-23T04:02:28.352Z,208
2017-07-23T04:03:17.354Z,196
2017-07-23T04:04:12.847Z,228
2017-07-23T04:05:12.478Z,292
2017-07-23T04:06:00.450Z,348
2017-07-23T04:06:54.971Z,480
2017-07-23T04:07:50.066Z,700
2017-07-23T04:08:37.660Z,876
2017-07-23T04:09:37.697Z,1108
2017-07-23T04:10:31.601Z,1332
2017-07-23T04:11:31.710Z,1508
2017-07-23T04:12:25.750Z,1608
2017-07-23T04:13:14.770Z,1724
2017-07-23T04:14:08.833Z,1808
2017-07-23T04:14:56.957Z,1952
2017-07-23T04:15:50.882Z,2112
2017-07-23T04:16:45.931Z,2224
2017-07-23T04:17:33.996Z,2276
2017-07-23T04:18:29.146Z,2332
2017-07-23T04:19:24.118Z,2328
2017-07-23T04:20:19.208Z,2284
2017-07-23T04:21:14.149Z,2168
2017-07-23T04:22:02.250Z,1988
2017-07-23T04:22:51.626Z,1824
2017-07-23T04:23:45.339Z,1536
2017-07-23T04:24:33.912Z,1328
2017-07-23T04:25:28.407Z,1120
2017-07-23T04:26:29.444Z,928
2017-07-23T04:27:30.344Z,808
2017-07-23T04:28:24.571Z,752
2017-07-23T04:29:12.604Z,740
2017-07-23T04:30:00.731Z,768
2017-07-23T04:30:55.966Z,836
2017-07-23T04:31:50.606Z,928
2017-07-23T04:32:45.841Z,992
2017-07-23T04:33:45.748Z,1072
2017-07-23T04:34:40.948Z,1132
2017-07-23T04:35:34.865Z,1076
2017-07-23T04:36:35.481Z,992
2017-07-23T04:37:29.964Z,920
2017-07-23T04:38:18.270Z,896
2017-07-23T04:39:13.147Z,864
2017-07-23T04:40:13.189Z,828
2017-07-23T04:41:07.351Z,788
2017-07-23T04:42:01.261Z,736
2017-07-23T04:42:50.276Z,708
2017-07-23T04:43:39.221Z,680
2017-07-23T04:44:34.310Z,624
2017-07-23T04:45:23.355Z,588
2017-07-23T04:46:17.307Z,572
2017-07-23T04:47:11.433Z,560
2017-07-23T04:48:05.407Z,580
2017-07-23T04:49:00.450Z,616
2017-07-23T04:49:55.429Z,720
2017-07-23T04:50:51.025Z,872
2017-07-23T04:51:44.534Z,1056
2017-07-23T04:52:39.611Z,1284
2017-07-23T04:53:39.609Z,1308
2017-07-23T04:54:34.773Z,1668
2017-07-23T04:55:34.692Z,1812
2017-07-23T04:56:29.834Z,1976
2017-07-23T04:57:24.738Z,2104
2017-07-23T04:58:18.865Z,2192
2017-07-23T04:59:19.920Z,2272
2017-07-23T05:00:14.963Z,2316
2017-07-23T05:01:14.941Z,2364
2017-07-23T05:02:15.073Z,2232
2017-07-23T05:03:15.023Z,2008
2017-07-23T05:04:15.159Z,1752
2017-07-23T05:05:15.044Z,1760
2017-07-23T05:06:09.064Z,2144
2017-07-23T05:07:04.250Z,2340
2017-07-23T05:07:58.227Z,2700
2017-07-23T05:08:53.261Z,2904
2017-07-23T05:09:53.337Z,3088
2017-07-23T05:10:42.293Z,3256
2017-07-23T05:11:36.968Z,3384
2017-07-23T05:12:36.496Z,3516
2017-07-23T05:13:31.414Z,3552
2017-07-23T05:14:20.555Z,3460
2017-07-23T05:15:20.539Z,3632
2017-07-23T05:16:20.652Z,3732
2017-07-23T05:17:14.646Z,3880
2017-07-23T05:18:03.831Z,4024
2017-07-23T05:18:53.040Z,4304
2017-07-23T05:19:40.815Z,4596
2017-07-23T05:20:28.826Z,4920
2017-07-23T05:21:23.803Z,5348
2017-07-23T05:22:17.927Z,5760
2017-07-23T05:23:06.979Z,6092
2017-07-23T05:24:06.966Z,6356
2017-07-23T05:25:02.083Z,6680
2017-07-23T05:25:56.168Z,7176
2017-07-23T05:26:56.108Z,7760
2017-07-23T05:27:50.153Z,8480
2017-07-23T05:28:44.221Z,9356
2017-07-23T05:29:39.280Z,10312
2017-07-23T05:30:33.234Z,11352
2017-07-23T05:31:27.355Z,12556
2017-07-23T05:32:22.364Z,13380
2017-07-23T05:33:22.392Z,13612
2017-07-23T05:34:11.530Z,13088
2017-07-23T05:35:05.609Z,11980
2017-07-23T05:35:54.473Z,10856
2017-07-23T05:36:48.623Z,10008
2017-07-23T05:37:42.564Z,9776
2017-07-23T05:38:30.817Z,9916
2017-07-23T05:39:19.723Z,10384
2017-07-23T05:40:13.764Z,12036
2017-07-23T05:41:01.799Z,12464
2017-07-23T05:42:01.873Z,19104
2017-07-23T05:42:56.883Z,16160
2017-07-23T05:43:56.956Z,13164
2017-07-23T05:44:56.869Z,17664
2017-07-23T05:45:45.953Z,29536
2017-07-23T05:46:35.501Z,13200
2017-07-23T05:47:35.075Z,15852
2017-07-23T05:48:30.145Z,40000
2017-07-23T05:49:30.153Z,26592
2017-07-23T05:50:25.377Z,41440
2017-07-23T05:51:13.165Z,39840
2017-07-23T05:52:02.357Z,35232
2017-07-23T05:52:51.836Z,33408
2017-07-23T05:53:51.477Z,32768
2017-07-23T05:54:45.630Z,34528
2017-07-23T05:55:45.919Z,10612
2017-07-23T05:56:39.897Z,38752
2017-07-23T05:57:33.626Z,13776
2017-07-23T05:58:27.722Z,43328
2017-07-23T05:59:15.702Z,42048
2017-07-23T06:00:09.930Z,39552
2017-07-23T06:01:10.675Z,28800
2017-07-23T06:02:04.803Z,39136
2017-07-23T06:02:59.096Z,39904
2017-07-23T06:03:59.250Z,39296
2017-07-23T06:04:53.208Z,38272
2017-07-23T06:05:54.187Z,33824
2017-07-23T06:06:54.376Z,20960
2017-07-23T06:07:49.378Z,39488
2017-07-23T06:08:38.087Z,40224
2017-07-23T06:09:32.577Z,39168
2017-07-23T06:10:26.667Z,42784
2017-07-23T06:11:20.716Z,44128
2017-07-23T06:12:09.257Z,44000
2017-07-23T06:13:09.658Z,44320
2017-07-23T06:14:03.459Z,40800
2017-07-23T06:14:58.531Z,38560
2017-07-23T06:15:47.509Z,41280
2017-07-23T06:16:42.087Z,43808
2017-07-23T06:17:35.572Z,44416
2017-07-23T06:18:30.697Z,50688
2017-07-23T06:19:24.956Z,52384
2017-07-23T06:20:24.851Z,52448
2017-07-23T06:21:13.912Z,50528
2017-07-23T06:22:03.185Z,34944
2017-07-23T06:22:58.165Z,43360
2017-07-23T06:23:52.345Z,36064
2017-07-23T06:24:46.373Z,30816
2017-07-23T06:25:40.566Z,32544
2017-07-23T06:26:35.113Z,62016
2017-07-23T06:27:30.545Z,53856
2017-07-23T06:28:30.781Z,60608
2017-07-23T06:29:18.699Z,57792
2017-07-23T06:30:07.909Z,33536
2017-07-23T06:31:02.838Z,46048
2017-07-23T06:31:57.902Z,40032
2017-07-23T06:32:57.931Z,20384
2017-07-23T06:33:57.820Z,57568
2017-07-23T06:34:46.815Z,22464
2017-07-23T06:35:41.126Z,54240
2017-07-23T06:36:35.064Z,43040
2017-07-23T06:37:29.910Z,48064
2017-07-23T06:38:19.302Z,44448
2017-07-23T06:39:13.233Z,44224
2017-07-23T06:40:08.349Z,47520
2017-07-23T06:40:57.275Z,49824
2017-07-23T06:41:51.565Z,51616
2017-07-23T06:42:39.655Z,50720
2017-07-23T06:43:33.611Z,51136
2017-07-23T06:44:27.759Z,51680
2017-07-23T06:45:21.817Z,52800
2017-07-23T06:46:15.952Z,55008
2017-07-23T06:47:09.964Z,55072
2017-07-23T06:48:03.833Z,55168
2017-07-23T06:49:10.010Z,52288
2017-07-23T06:50:05.060Z,49344
2017-07-23T06:50:59.175Z,46208
2017-07-23T06:51:48.145Z,44192
2017-07-23T06:52:48.286Z,43232
2017-07-23T06:53:42.261Z,45344
2017-07-23T06:54:36.446Z,50432
2017-07-23T06:55:25.490Z,53728
2017-07-23T06:56:13.410Z,54912
2017-07-23T06:57:08.542Z,54016
2017-07-23T06:57:57.680Z,52128
2017-07-23T06:58:57.651Z,45728
2017-07-23T06:59:57.706Z,47136
2017-07-23T07:00:46.752Z,48672
2017-07-23T07:01:41.905Z,47488
2017-07-23T07:02:36.015Z,48064
2017-07-23T07:03:35.848Z,31648
2017-07-23T07:04:30.953Z,48896
2017-07-23T07:05:19.058Z,52224
2017-07-23T07:06:14.100Z,55744
2017-07-23T07:07:14.095Z,59904
2017-07-23T07:08:08.105Z,66400
2017-07-23T07:09:08.243Z,69280
2017-07-23T07:09:57.278Z,74496
2017-07-23T07:10:51.305Z,69856
2017-07-23T07:11:45.384Z,66848
2017-07-23T07:12:39.401Z,60800
2017-07-23T07:13:33.592Z,56736
2017-07-23T07:14:27.576Z,52960
2017-07-23T07:15:22.698Z,51776
2017-07-23T07:16:10.764Z,54944
2017-07-23T07:16:59.643Z,61344
2017-07-23T07:17:53.870Z,66016
2017-07-23T07:18:59.943Z,67392
2017-07-23T07:19:49.063Z,71616
2017-07-23T07:20:43.965Z,72320
2017-07-23T07:21:33.057Z,71104
2017-07-23T07:22:33.070Z,71136
2017-07-23T07:23:27.124Z,69952
2017-07-23T07:24:21.203Z,68576
2017-07-23T07:25:16.387Z,67264
2017-07-23T07:26:10.384Z,71968
2017-07-23T07:26:59.396Z,75296
2017-07-23T07:27:54.543Z,74496
2017-07-23T07:28:48.534Z,77440
2017-07-23T07:29:42.489Z,81568
2017-07-23T07:30:36.780Z,33312
2017-07-23T07:31:36.746Z,67872
2017-07-23T07:32:25.816Z,47520
2017-07-23T07:33:13.865Z,91328
2017-07-23T07:34:08.928Z,78848
2017-07-23T07:35:08.980Z,87744
2017-07-23T07:35:58.111Z,43104
2017-07-23T07:36:52.146Z,65856
2017-07-23T07:37:46.064Z,55712
2017-07-23T07:38:40.128Z,37504
2017-07-23T07:39:34.232Z,74208
2017-07-23T07:40:23.261Z,41504
2017-07-23T07:41:29.347Z,37504
2017-07-23T07:42:23.425Z,59264
2017-07-23T07:43:12.578Z,92928
2017-07-23T07:44:07.666Z,78272
2017-07-23T07:45:07.577Z,74336
2017-07-23T07:45:55.663Z,94400
2017-07-23T07:46:44.821Z,94624
2017-07-23T07:47:44.936Z,89440
2017-07-23T07:48:44.880Z,44064
2017-07-23T07:49:38.923Z,59456
2017-07-23T07:50:28.131Z,72384
2017-07-23T07:51:16.163Z,61024
2017-07-23T07:52:16.131Z,29952
2017-07-23T07:53:10.275Z,34016
2017-07-23T07:54:04.237Z,28256
2017-07-23T07:55:04.323Z,27904
2017-07-23T07:55:53.401Z,28512
2017-07-23T07:56:41.579Z,30944
2017-07-23T07:57:35.436Z,29408
2017-07-23T07:58:30.674Z,30176
2017-07-23T07:59:25.629Z,37952
2017-07-23T08:00:14.686Z,38816
2017-07-23T08:01:09.670Z,33824
2017-07-23T08:02:09.767Z,32704
2017-07-23T08:03:03.897Z,32576
2017-07-23T08:03:57.848Z,29344
2017-07-23T08:04:51.962Z,34912
2017-07-23T08:05:46.030Z,29696
2017-07-23T08:06:41.109Z,30528
2017-07-23T08:07:41.166Z,40576
2017-07-23T08:08:36.264Z,33856
2017-07-23T08:09:31.293Z,31168
2017-07-23T08:10:25.267Z,36960
2017-07-23T08:11:19.412Z,49664
2017-07-23T08:12:13.437Z,46816
2017-07-23T08:13:08.490Z,39328
2017-07-23T08:14:02.539Z,45568
2017-07-23T08:14:57.524Z,43424
2017-07-23T08:15:51.644Z,54848
2017-07-23T08:16:51.647Z,47808
2017-07-23T08:17:45.728Z,71104
2017-07-23T08:18:39.856Z,67712
2017-07-23T08:19:40.867Z,60512
2017-07-23T08:20:41.857Z,36480
2017-07-23T08:21:42.034Z,23040
2017-07-23T08:22:37.002Z,23040
2017-07-23T08:23:32.142Z,23264
2017-07-23T08:24:32.142Z,18912
2017-07-23T08:25:26.226Z,19136
2017-07-23T08:26:21.139Z,55584
2017-07-23T08:27:09.294Z,57568
2017-07-23T08:28:03.381Z,77536
2017-07-23T08:28:58.343Z,91776
2017-07-23T08:29:52.492Z,90560
2017-07-23T08:30:46.553Z,89440
2017-07-23T08:31:35.507Z,87968
2017-07-23T08:32:35.657Z,87648
2017-07-23T08:33:30.642Z,85632
2017-07-23T08:34:19.703Z,83936
2017-07-23T08:35:13.742Z,82688
2017-07-23T08:36:13.839Z,82944
2017-07-23T08:37:07.890Z,82784
2017-07-23T08:38:07.916Z,82304
2017-07-23T08:38:56.998Z,80512
2017-07-23T08:39:45.953Z,78304
2017-07-23T08:40:40.088Z,76320
2017-07-23T08:41:34.188Z,74176
2017-07-23T08:42:29.226Z,74848
2017-07-23T08:43:29.278Z,78464
2017-07-23T08:44:23.358Z,79168
2017-07-23T08:45:12.313Z,84096
2017-07-23T08:46:06.354Z,86880
2017-07-23T08:47:06.505Z,88352
2017-07-23T08:47:55.563Z,85952
2017-07-23T08:48:55.571Z,84768
2017-07-23T08:49:44.613Z,41984
2017-07-23T08:50:33.682Z,48064
2017-07-23T08:51:28.738Z,20288
2017-07-23T08:52:22.850Z,16236
2017-07-23T08:53:17.809Z,43392
2017-07-23T08:54:17.940Z,30144
2017-07-23T08:55:12.941Z,33248
2017-07-23T08:56:06.969Z,30336
2017-07-23T08:57:01.111Z,28640
2017-07-23T08:57:56.117Z,100096
2017-07-23T08:58:51.192Z,29600
2017-07-23T08:59:46.187Z,28544
2017-07-23T09:00:40.377Z,25920
2017-07-23T09:01:40.430Z,22112
2017-07-23T09:02:34.449Z,18112
2017-07-23T09:03:23.603Z,14924
2017-07-23T09:04:23.582Z,13560
2017-07-23T09:05:17.601Z,14968
2017-07-23T09:06:17.746Z,20576
2017-07-23T09:07:11.776Z,99648
2017-07-23T09:08:00.827Z,36704
2017-07-23T09:09:00.939Z,30080
2017-07-23T09:10:00.813Z,18368
2017-07-23T09:11:00.886Z,16288
2017-07-23T09:11:55.043Z,15404
2017-07-23T09:12:49.051Z,14616
2017-07-23T09:13:38.058Z,14488
2017-07-23T09:14:32.120Z,15076
2017-07-23T09:15:32.177Z,18048
2017-07-23T09:16:27.219Z,24352
2017-07-23T09:17:21.318Z,62048
2017-07-23T09:18:09.312Z,95616
2017-07-23T09:19:04.308Z,25312
2017-07-23T09:19:59.426Z,18176
2017-07-23T09:20:54.503Z,16296
2017-07-23T09:21:48.531Z,16820
2017-07-23T09:22:42.593Z,20576
2017-07-23T09:23:31.589Z,61856
2017-07-23T09:24:26.660Z,55648
2017-07-23T09:25:21.918Z,96768
2017-07-23T09:26:15.789Z,95872
2017-07-23T09:27:15.847Z,95456
2017-07-23T09:28:04.872Z,96128
2017-07-23T09:28:58.979Z,68736
2017-07-23T09:29:53.944Z,18464
2017-07-23T09:30:48.157Z,22560
2017-07-23T09:31:42.274Z,16820
2017-07-23T09:32:37.232Z,15168
2017-07-23T09:33:37.409Z,14040
2017-07-23T09:34:32.361Z,12904
2017-07-23T09:35:21.370Z,11720
2017-07-23T09:36:16.561Z,9940
2017-07-23T09:37:16.437Z,8056
2017-07-23T09:38:04.540Z,7784
2017-07-23T09:38:52.575Z,7956
2017-07-23T09:39:47.101Z,9484
2017-07-23T09:40:36.496Z,11656
2017-07-23T09:41:30.778Z,14580
2017-07-23T09:42:25.832Z,19712
2017-07-23T09:43:20.720Z,25344
2017-07-23T09:44:14.858Z,49088
2017-07-23T09:45:02.926Z,31776
2017-07-23T09:46:02.947Z,29760
2017-07-23T09:46:57.186Z,27840
2017-07-23T09:47:51.956Z,23936
2017-07-23T09:48:46.121Z,20992
2017-07-23T09:49:46.129Z,19264
2017-07-23T09:50:40.199Z,18336
2017-07-23T09:51:40.280Z,17600
2017-07-23T09:52:35.262Z,16832
2017-07-23T09:53:23.334Z,16048
2017-07-23T09:54:23.220Z,14928
2017-07-23T09:55:18.390Z,13500
2017-07-23T09:56:12.536Z,11868
2017-07-23T09:57:01.396Z,10708
2017-07-23T09:58:01.143Z,10196
2017-07-23T09:58:55.194Z,10412
2017-07-23T09:59:49.616Z,11096
2017-07-23T10:00:44.301Z,11716
2017-07-23T10:01:38.476Z,11968
2017-07-23T10:02:33.435Z,12816
2017-07-23T10:03:29.013Z,14884
2017-07-23T10:04:22.419Z,43840
2017-07-23T10:05:16.881Z,108320
2017-07-23T10:06:16.505Z,118016
2017-07-23T10:07:11.157Z,126208
2017-07-23T10:08:11.127Z,104064
2017-07-23T10:09:05.243Z,122464
2017-07-23T10:10:00.237Z,35264
2017-07-23T10:10:54.348Z,30272
2017-07-23T10:11:49.426Z,38304
2017-07-23T10:12:43.363Z,71200
2017-07-23T10:13:37.384Z,26432
2017-07-23T10:14:32.529Z,22496
2017-07-23T10:15:26.638Z,19104
2017-07-23T10:16:20.668Z,17280
2017-07-23T10:17:20.736Z,14060
2017-07-23T10:18:14.666Z,10996
2017-07-23T10:19:02.802Z,8556
2017-07-23T10:20:04.058Z,6524
2017-07-23T10:20:52.949Z,6612
2017-07-23T10:21:47.993Z,8576
2017-07-23T10:22:42.029Z,11400
2017-07-23T10:23:37.101Z,13928
2017-07-23T10:24:32.027Z,15896
2017-07-23T10:25:27.090Z,15468
2017-07-23T10:26:22.278Z,15232
2017-07-23T10:27:16.192Z,14756
2017-07-23T10:28:10.350Z,13472
2017-07-23T10:29:05.347Z,12896
2017-07-23T10:29:59.462Z,11888
2017-07-23T10:30:47.548Z,11252
2017-07-23T10:31:42.484Z,10780
2017-07-23T10:32:37.562Z,10636
2017-07-23T10:33:31.536Z,10584
2017-07-23T10:34:25.678Z,10660
2017-07-23T10:35:20.635Z,10924
2017-07-23T10:36:14.851Z,11432
2017-07-23T10:37:14.702Z,12000
2017-07-23T10:38:08.821Z,13312
2017-07-23T10:39:08.842Z,14132
2017-07-23T10:40:02.819Z,15884
2017-07-23T10:41:02.897Z,17952
2017-07-23T10:41:57.030Z,19840
2017-07-23T10:42:56.977Z,22944
2017-07-23T10:43:46.130Z,25728
2017-07-23T10:44:41.177Z,28832
2017-07-23T10:45:41.171Z,32032
2017-07-23T10:46:36.280Z,28704
2017-07-23T10:47:24.254Z,25184
2017-07-23T10:48:18.309Z,21280
2017-07-23T10:49:13.404Z,18496
2017-07-23T10:50:07.418Z,16112
2017-07-23T10:51:07.494Z,14380
2017-07-23T10:52:02.454Z,12372
2017-07-23T10:53:02.529Z,10140
2017-07-23T10:54:03.619Z,8412
2017-07-23T10:55:04.574Z,7552
2017-07-23T10:56:05.625Z,7436
2017-07-23T10:56:59.687Z,7816
2017-07-23T10:57:53.741Z,9120
2017-07-23T10:58:53.838Z,13184
2017-07-23T10:59:41.806Z,16448
2017-07-23T11:00:36.027Z,19520
2017-07-23T11:01:29.950Z,25792
2017-07-23T11:02:23.975Z,95520
2017-07-23T11:03:12.923Z,93984
2017-07-23T11:04:02.320Z,92640
2017-07-23T11:05:08.184Z,94528
2017-07-23T11:06:03.224Z,96288
2017-07-23T11:06:57.340Z,98400
2017-07-23T11:07:57.728Z,100864
2017-07-23T11:08:46.339Z,26080
2017-07-23T11:09:41.391Z,24128
2017-07-23T11:10:41.433Z,21888
2017-07-23T11:11:35.464Z,19776
2017-07-23T11:12:29.453Z,16960
2017-07-23T11:13:29.645Z,13544
2017-07-23T11:14:24.626Z,11684
2017-07-23T11:15:18.704Z,13040
2017-07-23T11:16:13.778Z,15144
2017-07-23T11:17:07.834Z,16128
2017-07-23T11:18:01.876Z,16448
2017-07-23T11:19:01.840Z,17056
2017-07-23T11:19:55.897Z,19328
2017-07-23T11:20:50.029Z,22208
2017-07-23T11:21:44.180Z,25952
2017-07-23T11:22:39.198Z,29312
2017-07-23T11:23:40.155Z,33952
2017-07-23T11:24:29.196Z,36704
2017-07-23T11:25:29.271Z,39744
2017-07-23T11:26:18.336Z,40416
2017-07-23T11:27:18.282Z,41024
2017-07-23T11:28:12.401Z,40128
2017-07-23T11:29:06.449Z,37344
2017-07-23T11:30:06.516Z,38592
2017-07-23T11:31:01.587Z,39616
2017-07-23T11:32:01.584Z,40800
2017-07-23T11:32:55.582Z,67008
2017-07-23T11:33:55.724Z,47744
2017-07-23T11:34:44.686Z,53696
2017-07-23T11:35:39.777Z,103392
2017-07-23T11:36:33.731Z,51776
2017-07-23T11:37:33.943Z,103136
2017-07-23T11:38:27.891Z,111808
2017-07-23T11:39:22.019Z,107488
2017-07-23T11:40:17.107Z,106944
2017-07-23T11:41:06.138Z,108288
2017-07-23T11:41:54.218Z,108000
2017-07-23T11:42:54.259Z,108832
2017-07-23T11:43:48.260Z,111360
2017-07-23T11:44:37.390Z,105248
2017-07-23T11:45:32.336Z,98432
2017-07-23T11:46:26.525Z,95040
2017-07-23T11:47:26.559Z,99360
2017-07-23T11:48:20.640Z,93952
2017-07-23T11:49:20.641Z,88544
2017-07-23T11:50:20.610Z,77856
2017-07-23T11:51:20.843Z,81472
2017-07-23T11:52:09.806Z,31392
2017-07-23T11:53:04.801Z,45184
2017-07-23T11:53:59.858Z,46176
2017-07-23T11:54:53.952Z,52384
2017-07-23T11:55:53.971Z,50560
2017-07-23T11:56:49.058Z,42208
2017-07-23T11:57:49.001Z,44256
2017-07-23T11:58:43.096Z,42944
2017-07-23T11:59:37.272Z,28928
2017-07-23T12:00:37.156Z,25728
2017-07-23T12:01:31.316Z,39072
2017-07-23T12:02:31.283Z,62528
2017-07-23T12:03:26.425Z,87168
2017-07-23T12:04:20.549Z,76320
2017-07-23T12:05:09.617Z,66976
2017-07-23T12:05:58.584Z,53056
2017-07-23T12:06:47.805Z,60544
2017-07-23T12:07:42.650Z,48416
2017-07-23T12:08:31.842Z,49184
2017-07-23T12:09:25.842Z,47520
2017-07-23T12:10:19.923Z,46784